createdAt,value
2022-10-17T00:01:27.017Z,70.84
2022-10-17T00:03:54.043Z,70.85
2022-10-17T00:06:21.187Z,70.68
2022-10-17T00:08:48.137Z,70.44
2022-10-17T00:11:23.173Z,70.49
2022-10-17T00:13:51.134Z,70.79
2022-10-17T00:16:26.209Z,70.83
2022-10-17T00:18:53.523Z,71.00
2022-10-17T00:21:21.103Z,70.92
2022-10-17T00:23:48.134Z,70.92
2022-10-17T00:26:16.407Z,70.87
2022-10-17T00:28:46.010Z,70.83
2022-10-17T00:31:13.060Z,70.81
2022-10-17T00:33:40.142Z,70.79
2022-10-17T00:36:16.487Z,70.69
2022-10-17T00:38:44.544Z,70.74
2022-10-17T00:41:13.022Z,71.06
2022-10-17T00:43:50.209Z,71.30
2022-10-17T00:46:17.561Z,71.24
2022-10-17T00:48:44.610Z,71.05
2022-10-17T00:51:11.575Z,70.92
2022-10-17T00:53:39.640Z,70.84
2022-10-17T00:56:06.878Z,70.92
2022-10-17T00:58:33.933Z,71.18
2022-10-17T01:01:02.010Z,71.28
2022-10-17T01:03:29.043Z,71.43
2022-10-17T01:05:56.092Z,71.31
2022-10-17T01:08:23.341Z,71.35
2022-10-17T01:11:22.546Z,71.20
2022-10-17T01:13:57.473Z,71.29
2022-10-17T01:16:53.704Z,71.16
2022-10-17T01:19:52.088Z,71.30
2022-10-17T01:22:41.060Z,71.46
2022-10-17T01:25:26.016Z,71.62
2022-10-17T01:28:31.497Z,71.69
2022-10-17T01:31:11.320Z,71.37
2022-10-17T01:33:44.608Z,71.09
2022-10-17T01:36:13.437Z,71.09
2022-10-17T01:38:51.100Z,71.20
2022-10-17T01:41:40.285Z,71.15
2022-10-17T01:44:21.539Z,71.28
2022-10-17T01:49:27.751Z,71.28
2022-10-17T01:52:10.442Z,71.20
2022-10-17T01:54:43.110Z,71.22
2022-10-17T01:57:20.610Z,71.24
2022-10-17T01:59:48.156Z,71.22
2022-10-17T02:02:16.847Z,71.20
2022-10-17T02:04:43.891Z,71.20
2022-10-17T02:07:12.169Z,71.30
2022-10-17T02:09:39.422Z,71.46
2022-10-17T02:12:24.895Z,71.50
2022-10-17T02:15:25.018Z,71.38
2022-10-17T02:18:15.211Z,71.26
2022-10-17T02:21:00.913Z,71.36
2022-10-17T02:23:58.148Z,71.37
2022-10-17T02:26:35.432Z,71.55
2022-10-17T02:29:38.117Z,71.60
2022-10-17T02:32:10.219Z,71.66
2022-10-17T02:34:43.181Z,71.64
2022-10-17T02:37:11.095Z,71.50
2022-10-17T02:39:38.287Z,71.43
2022-10-17T02:42:06.868Z,71.45
2022-10-17T02:44:33.915Z,71.38
2022-10-17T02:47:30.457Z,71.36
2022-10-17T02:49:58.731Z,71.37
2022-10-17T02:52:30.888Z,71.40
2022-10-17T02:55:01.661Z,71.42
2022-10-17T02:57:44.960Z,71.46
2022-10-17T03:00:14.472Z,71.37
2022-10-17T03:02:43.428Z,71.33
2022-10-17T03:05:11.708Z,71.34
2022-10-17T03:07:38.816Z,71.39
2022-10-17T03:10:06.441Z,71.44
2022-10-17T03:12:33.625Z,71.63
2022-10-17T03:15:00.636Z,71.91
2022-10-17T03:17:29.134Z,71.70
2022-10-17T03:19:56.164Z,71.50
2022-10-17T03:22:23.449Z,71.48
2022-10-17T03:24:50.673Z,71.31
2022-10-17T03:27:17.836Z,71.40
2022-10-17T03:29:45.137Z,71.47
2022-10-17T03:32:13.658Z,71.40
2022-10-17T03:34:41.217Z,71.60
2022-10-17T03:37:08.669Z,71.70
2022-10-17T03:39:36.063Z,71.68
2022-10-17T03:42:03.481Z,71.52
2022-10-17T03:44:30.849Z,71.53
2022-10-17T03:46:58.907Z,71.66
2022-10-17T03:49:26.164Z,71.76
2022-10-17T03:51:53.618Z,71.86
2022-10-17T03:54:20.592Z,71.77
2022-10-17T03:56:47.693Z,71.84
2022-10-17T03:59:17.420Z,71.89
2022-10-17T04:01:49.829Z,72.00
2022-10-17T04:04:17.376Z,71.86
2022-10-17T04:06:45.014Z,71.77
2022-10-17T04:09:12.173Z,71.71
2022-10-17T04:11:47.916Z,71.70
2022-10-17T04:14:15.265Z,71.81
2022-10-17T04:16:42.522Z,71.86
2022-10-17T04:19:35.434Z,71.97
2022-10-17T04:22:04.385Z,71.85
2022-10-17T04:24:55.057Z,71.70
2022-10-17T04:27:45.724Z,71.62
2022-10-17T04:30:14.378Z,71.53
2022-10-17T04:32:41.537Z,71.49
2022-10-17T04:35:19.735Z,71.50
2022-10-17T04:37:50.892Z,71.58
2022-10-17T04:40:18.640Z,71.64
2022-10-17T04:42:46.007Z,71.75
2022-10-17T04:45:15.191Z,71.65
2022-10-17T04:47:42.444Z,71.53
2022-10-17T04:50:10.415Z,71.52
2022-10-17T04:52:37.770Z,71.63
2022-10-17T04:57:43.133Z,71.76
2022-10-17T05:00:16.942Z,71.88
2022-10-17T05:02:54.217Z,71.91
2022-10-17T05:05:21.471Z,71.95
2022-10-17T05:07:51.282Z,71.86
2022-10-17T05:10:20.396Z,71.83
2022-10-17T05:12:49.387Z,72.07
2022-10-17T05:15:17.952Z,72.20
2022-10-17T05:17:45.093Z,72.29
2022-10-17T05:20:12.966Z,72.44
2022-10-17T05:22:42.122Z,72.68
2022-10-17T05:25:10.235Z,72.68
2022-10-17T05:27:38.383Z,72.76
2022-10-17T05:30:06.414Z,72.79
2022-10-17T05:32:34.450Z,72.88
2022-10-17T05:35:02.149Z,72.96
2022-10-17T05:37:30.490Z,73.05
2022-10-17T05:39:58.167Z,73.19
2022-10-17T05:42:25.987Z,73.27
2022-10-17T05:44:53.267Z,73.10
2022-10-17T05:47:20.828Z,73.06
2022-10-17T05:49:51.456Z,73.04
2022-10-17T05:52:22.299Z,73.06
2022-10-17T05:55:03.679Z,73.23
2022-10-17T05:57:31.953Z,73.31
2022-10-17T06:00:01.152Z,73.25
2022-10-17T06:02:41.814Z,73.43
2022-10-17T06:05:10.612Z,73.10
2022-10-17T06:07:37.961Z,72.57
2022-10-17T06:10:06.806Z,72.57
2022-10-17T06:12:34.312Z,72.55
2022-10-17T06:15:01.572Z,72.60
2022-10-17T06:17:29.523Z,72.58
2022-10-17T06:19:57.600Z,72.44
2022-10-17T06:22:24.949Z,72.41
2022-10-17T06:24:54.048Z,72.08
2022-10-17T06:27:21.234Z,71.69
2022-10-17T06:29:48.549Z,71.28
2022-10-17T06:32:15.518Z,70.92
2022-10-17T06:34:46.108Z,70.42
2022-10-17T06:37:13.274Z,70.06
2022-10-17T06:39:41.686Z,69.69
2022-10-17T06:42:14.098Z,69.27
2022-10-17T06:45:03.250Z,68.41
2022-10-17T06:47:41.807Z,67.60
2022-10-17T06:50:32.018Z,66.48
2022-10-17T06:53:10.111Z,65.76
2022-10-17T06:55:54.170Z,65.27
2022-10-17T06:58:41.883Z,64.51
2022-10-17T07:01:22.970Z,63.31
2022-10-17T07:03:54.312Z,62.18
2022-10-17T07:06:23.613Z,61.47
2022-10-17T07:08:51.683Z,60.84
2022-10-17T07:11:20.879Z,60.28
2022-10-17T07:13:50.283Z,59.80
2022-10-17T07:16:17.636Z,59.00
2022-10-17T07:18:49.912Z,58.28
2022-10-17T07:21:17.971Z,57.66
2022-10-17T07:23:45.025Z,57.23
2022-10-17T07:26:13.632Z,56.53
2022-10-17T07:28:43.442Z,55.87
2022-10-17T07:31:49.108Z,55.81
2022-10-17T07:37:25.605Z,54.24
2022-10-17T07:39:57.037Z,53.95
2022-10-17T07:42:28.055Z,53.44
2022-10-17T07:44:55.660Z,53.01
2022-10-17T07:47:23.577Z,52.43
2022-10-17T07:49:50.830Z,51.87
2022-10-17T07:52:28.177Z,51.40
2022-10-17T07:54:55.525Z,51.00
2022-10-17T07:57:22.669Z,50.59
2022-10-17T07:59:51.505Z,49.89
2022-10-17T08:02:22.863Z,49.42
2022-10-17T08:04:50.251Z,49.13
2022-10-17T08:07:24.104Z,48.51
2022-10-17T08:09:52.426Z,47.95
2022-10-17T08:12:19.397Z,47.60
2022-10-17T08:14:46.745Z,47.40
2022-10-17T08:17:13.778Z,47.07
2022-10-17T08:19:40.864Z,46.70
2022-10-17T08:22:07.874Z,45.94
2022-10-17T08:24:34.866Z,45.57
2022-10-17T08:27:04.671Z,44.93
2022-10-17T08:29:35.399Z,44.35
2022-10-17T08:32:13.210Z,43.67
2022-10-17T08:34:40.136Z,42.91
2022-10-17T08:37:07.174Z,42.20
2022-10-17T08:39:34.099Z,41.47
2022-10-17T08:42:19.760Z,40.80
2022-10-17T08:45:19.284Z,40.54
2022-10-17T08:47:47.805Z,39.80
2022-10-17T08:50:29.138Z,39.43
2022-10-17T08:53:02.984Z,39.00
2022-10-17T08:55:45.408Z,38.35
2022-10-17T08:58:19.558Z,37.88
2022-10-17T09:00:54.467Z,38.52
2022-10-17T09:04:03.402Z,38.24
2022-10-17T09:06:35.521Z,37.68
2022-10-17T09:09:11.521Z,37.69
2022-10-17T09:12:05.803Z,37.06
2022-10-17T09:14:53.346Z,36.91
2022-10-17T09:17:37.739Z,36.29
2022-10-17T09:20:20.917Z,36.24
2022-10-17T09:22:58.947Z,36.15
2022-10-17T09:25:36.928Z,35.23
2022-10-17T09:28:09.970Z,34.51
2022-10-17T09:30:47.883Z,34.33
2022-10-17T09:33:35.595Z,34.60
2022-10-17T09:36:27.761Z,33.89
2022-10-17T09:39:02.145Z,33.46
2022-10-17T09:41:49.598Z,33.33
2022-10-17T09:44:37.902Z,33.37
2022-10-17T09:47:19.882Z,32.70
2022-10-17T09:49:50.363Z,32.28
2022-10-17T09:52:19.066Z,31.85
2022-10-17T09:54:57.326Z,31.89
2022-10-17T09:57:56.054Z,32.44
2022-10-17T10:00:27.036Z,32.12
2022-10-17T10:03:09.210Z,31.58
2022-10-17T10:05:38.612Z,31.34
2022-10-17T10:08:15.894Z,31.06
2022-10-17T10:10:45.962Z,30.99
2022-10-17T10:13:12.967Z,30.84
2022-10-17T10:15:41.475Z,30.67
2022-10-17T10:18:26.689Z,30.11
2022-10-17T10:21:03.001Z,29.44
2022-10-17T10:23:29.877Z,29.11
2022-10-17T10:25:57.562Z,29.20
2022-10-17T10:28:28.631Z,29.19
2022-10-17T10:30:55.747Z,29.16
2022-10-17T10:33:23.097Z,29.13
2022-10-17T10:35:57.169Z,28.86
2022-10-17T10:38:24.024Z,28.32
2022-10-17T10:40:57.927Z,27.90
2022-10-17T10:43:35.884Z,27.96
2022-10-17T10:46:03.348Z,28.10
2022-10-17T10:48:32.372Z,28.49
2022-10-17T10:51:10.017Z,28.63
2022-10-17T10:53:55.851Z,28.34
2022-10-17T10:56:30.210Z,27.52
2022-10-17T10:58:58.820Z,26.72
2022-10-17T11:01:35.766Z,26.73
2022-10-17T11:04:05.132Z,27.47
2022-10-17T11:06:33.895Z,27.83
2022-10-17T11:09:19.638Z,28.24
2022-10-17T11:12:14.888Z,28.34
2022-10-17T11:14:56.496Z,27.60
2022-10-17T11:17:42.326Z,27.37
2022-10-17T11:20:09.087Z,27.61
2022-10-17T11:22:48.766Z,28.21
2022-10-17T11:25:21.236Z,27.82
2022-10-17T11:27:48.288Z,27.46
2022-10-17T11:30:15.275Z,26.74
2022-10-17T11:32:46.376Z,26.68
2022-10-17T11:35:19.293Z,26.42
2022-10-17T11:37:51.327Z,26.25
2022-10-17T11:40:20.608Z,26.52
2022-10-17T11:42:55.298Z,27.06
2022-10-17T11:45:22.451Z,26.83
2022-10-17T11:47:56.237Z,26.78
2022-10-17T11:53:14.840Z,26.65
2022-10-17T11:55:41.904Z,26.67
2022-10-17T11:58:11.804Z,26.77
2022-10-17T12:00:40.845Z,26.83
2022-10-17T12:03:27.668Z,27.34
2022-10-17T12:05:56.861Z,27.19
2022-10-17T12:08:25.192Z,27.18
2022-10-17T12:10:58.209Z,27.56
2022-10-17T12:13:28.244Z,27.89
2022-10-17T12:15:55.344Z,27.75
2022-10-17T12:18:23.720Z,27.64
2022-10-17T12:20:57.610Z,28.05
2022-10-17T12:23:28.667Z,27.73
2022-10-17T12:26:01.139Z,28.29
2022-10-17T12:28:41.073Z,28.20
2022-10-17T12:34:25.274Z,28.14
2022-10-17T12:36:52.146Z,28.27
2022-10-17T12:39:39.102Z,28.55
2022-10-17T12:42:32.496Z,28.66
2022-10-17T12:48:09.584Z,28.97
2022-10-17T12:51:12.163Z,28.65
2022-10-17T12:53:47.246Z,28.17
2022-10-17T12:56:15.111Z,28.37
2022-10-17T12:58:43.080Z,28.94
2022-10-17T13:01:29.530Z,28.93
2022-10-17T13:03:57.349Z,29.08
2022-10-17T13:06:24.906Z,28.57
2022-10-17T13:09:03.952Z,28.97
2022-10-17T13:11:33.748Z,29.20
2022-10-17T13:14:02.185Z,29.27
2022-10-17T13:16:32.141Z,29.09
2022-10-17T13:18:59.598Z,29.65
2022-10-17T13:21:29.001Z,29.76
2022-10-17T13:23:57.586Z,29.69
2022-10-17T13:26:25.759Z,30.28
2022-10-17T13:29:06.973Z,30.47
2022-10-17T13:31:38.900Z,31.02
2022-10-17T13:34:17.558Z,30.90
2022-10-17T13:36:50.400Z,31.12
2022-10-17T13:39:23.110Z,31.29
2022-10-17T13:41:59.259Z,31.80
2022-10-17T13:44:26.807Z,31.96
2022-10-17T13:46:53.618Z,32.24
2022-10-17T13:49:33.629Z,32.66
2022-10-17T13:52:01.164Z,32.66
2022-10-17T13:54:31.588Z,32.95
2022-10-17T13:56:58.644Z,33.09
2022-10-17T13:59:27.927Z,32.83
2022-10-17T14:01:55.486Z,33.15
2022-10-17T14:04:22.533Z,33.63
2022-10-17T14:06:52.295Z,33.97
2022-10-17T14:09:21.152Z,34.23
2022-10-17T14:11:56.376Z,34.41
2022-10-17T14:14:25.780Z,35.46
2022-10-17T14:16:52.841Z,36.26
2022-10-17T14:19:26.652Z,36.11
2022-10-17T14:22:13.515Z,36.21
2022-10-17T14:24:43.057Z,36.53
2022-10-17T14:27:26.838Z,37.03
2022-10-17T14:29:54.657Z,37.64
2022-10-17T14:32:21.836Z,37.98
2022-10-17T14:34:51.840Z,38.73
2022-10-17T14:37:24.601Z,39.94
2022-10-17T14:39:52.372Z,39.88
2022-10-17T14:42:20.232Z,39.10
2022-10-17T14:44:50.963Z,38.91
2022-10-17T14:47:42.287Z,39.41
2022-10-17T14:50:07.323Z,40.14
2022-10-17T14:52:35.223Z,40.32
2022-10-17T14:55:13.763Z,40.33
2022-10-17T14:57:42.450Z,41.49
2022-10-17T15:00:13.118Z,41.42
2022-10-17T15:02:40.127Z,42.18
2022-10-17T15:05:10.766Z,42.52
2022-10-17T15:07:41.182Z,42.44
2022-10-17T15:10:26.784Z,42.40
2022-10-17T15:12:59.233Z,42.93
2022-10-17T15:15:32.637Z,43.50
2022-10-17T15:18:03.375Z,44.07
2022-10-17T15:20:30.834Z,44.80
2022-10-17T15:22:58.693Z,45.39
2022-10-17T15:25:26.045Z,45.66
2022-10-17T15:27:53.015Z,45.98
2022-10-17T15:30:23.109Z,46.02
2022-10-17T15:32:50.527Z,46.43
2022-10-17T15:35:18.022Z,46.62
2022-10-17T15:37:46.402Z,46.49
2022-10-17T15:40:18.094Z,47.17
2022-10-17T15:42:45.152Z,47.11
2022-10-17T15:45:15.859Z,47.54
2022-10-17T15:47:49.248Z,47.87
2022-10-17T15:50:16.304Z,48.09
2022-10-17T15:52:43.941Z,48.40
2022-10-17T15:55:10.886Z,48.86
2022-10-17T15:57:38.859Z,49.37
2022-10-17T16:00:07.131Z,49.79
2022-10-17T16:02:36.639Z,50.11
2022-10-17T16:05:08.802Z,50.42
2022-10-17T16:07:36.488Z,50.53
2022-10-17T16:10:04.128Z,51.23
2022-10-17T16:12:36.308Z,51.51
2022-10-17T16:15:05.497Z,51.82
2022-10-17T16:17:32.939Z,52.19
2022-10-17T16:20:03.578Z,52.32
2022-10-17T16:22:31.923Z,52.88
2022-10-17T16:25:07.303Z,53.25
2022-10-17T16:27:34.757Z,53.72
2022-10-17T16:30:04.570Z,54.24
2022-10-17T16:32:31.877Z,54.80
2022-10-17T16:34:59.687Z,55.22
2022-10-17T16:37:27.755Z,55.72
2022-10-17T16:39:55.112Z,56.14
2022-10-17T16:42:22.568Z,56.62
2022-10-17T16:44:50.126Z,57.06
2022-10-17T16:47:17.412Z,57.26
2022-10-17T16:49:45.513Z,57.58
2022-10-17T16:52:12.603Z,58.02
2022-10-17T16:54:39.857Z,58.43
2022-10-17T16:57:06.897Z,58.77
2022-10-17T16:59:33.748Z,59.06
2022-10-17T17:02:00.888Z,59.51
2022-10-17T17:04:27.941Z,59.72
2022-10-17T17:06:56.702Z,60.09
2022-10-17T17:09:25.517Z,60.52
2022-10-17T17:11:52.870Z,60.61
2022-10-17T17:15:12.586Z,61.07
2022-10-17T17:17:55.731Z,61.43
2022-10-17T17:20:23.360Z,61.79
2022-10-17T17:22:51.105Z,62.05
2022-10-17T17:25:18.265Z,62.12
2022-10-17T17:27:45.601Z,62.14
2022-10-17T17:30:12.969Z,62.40
2022-10-17T17:32:39.978Z,62.59
2022-10-17T17:35:07.358Z,62.77
2022-10-17T17:37:34.411Z,62.93
2022-10-17T17:40:01.430Z,63.14
2022-10-17T17:42:28.708Z,63.29
2022-10-17T17:44:55.714Z,63.50
2022-10-17T17:47:22.798Z,63.74
2022-10-17T17:49:50.049Z,64.05
2022-10-17T17:52:17.096Z,64.15
2022-10-17T17:54:44.661Z,64.17
2022-10-17T17:57:12.882Z,64.19
2022-10-17T17:59:41.319Z,64.36
2022-10-17T18:02:09.279Z,64.48
2022-10-17T18:04:36.553Z,64.67
2022-10-17T18:07:03.619Z,64.72
2022-10-17T18:09:31.923Z,65.06
2022-10-17T18:11:59.614Z,65.31
2022-10-17T18:14:26.599Z,65.57
2022-10-17T18:16:53.764Z,65.52
2022-10-17T18:19:22.395Z,65.37
2022-10-17T18:21:49.503Z,65.21
2022-10-17T18:24:16.527Z,65.15
2022-10-17T18:26:43.545Z,65.25
2022-10-17T18:29:12.955Z,65.23
2022-10-17T18:31:45.356Z,65.34
2022-10-17T18:34:12.370Z,65.36
2022-10-17T18:36:39.314Z,65.46
2022-10-17T18:39:06.383Z,65.59
2022-10-17T18:41:33.733Z,65.65
2022-10-17T18:44:00.962Z,65.60
2022-10-17T18:46:29.671Z,65.60
2022-10-17T18:48:56.644Z,65.67
2022-10-17T18:51:24.684Z,65.72
2022-10-17T18:53:55.924Z,65.77
2022-10-17T18:56:23.320Z,65.93
2022-10-17T18:58:50.384Z,66.09
2022-10-17T19:01:25.131Z,66.35
2022-10-17T19:03:57.900Z,66.20
2022-10-17T19:06:27.113Z,66.25
2022-10-17T19:08:54.165Z,66.26
2022-10-17T19:11:25.729Z,66.31
2022-10-17T19:13:52.922Z,66.40
2022-10-17T19:16:25.008Z,66.52
2022-10-17T19:18:53.406Z,66.69
2022-10-17T19:21:21.972Z,66.75
2022-10-17T19:23:59.730Z,66.92
2022-10-17T19:26:28.055Z,67.00
2022-10-17T19:28:55.229Z,66.99
2022-10-17T19:31:26.823Z,67.04
2022-10-17T19:33:54.458Z,67.09
2022-10-17T19:36:22.078Z,67.19
2022-10-17T19:38:49.062Z,67.24
2022-10-17T19:41:16.458Z,67.32
2022-10-17T19:43:43.738Z,67.37
2022-10-17T19:46:15.667Z,67.42
2022-10-17T19:48:42.929Z,67.49
2022-10-17T19:51:15.037Z,67.47
2022-10-17T19:53:42.633Z,67.43
2022-10-17T19:56:09.750Z,67.39
2022-10-17T19:58:45.353Z,67.43
2022-10-17T20:01:20.476Z,67.59
2022-10-17T20:03:49.431Z,67.80
2022-10-17T20:06:16.787Z,67.95
2022-10-17T20:08:44.232Z,68.07
2022-10-17T20:11:12.997Z,68.20
2022-10-17T20:13:40.128Z,68.22
2022-10-17T20:16:07.908Z,68.11
2022-10-17T20:18:35.111Z,68.26
2022-10-17T20:21:06.580Z,68.28
2022-10-17T20:23:36.812Z,68.43
2022-10-17T20:29:08.914Z,68.60
2022-10-17T20:31:36.334Z,68.66
2022-10-17T20:34:03.672Z,68.83
2022-10-17T20:36:30.768Z,68.95
2022-10-17T20:38:58.646Z,68.80
2022-10-17T20:41:26.060Z,68.79
2022-10-17T20:43:54.197Z,68.81
2022-10-17T20:46:35.498Z,68.88
2022-10-17T20:49:03.317Z,68.83
2022-10-17T20:51:30.422Z,68.89
2022-10-17T20:56:29.968Z,68.86
2022-10-17T20:58:58.600Z,68.85
2022-10-17T21:01:26.015Z,68.90
2022-10-17T21:03:53.342Z,68.86
2022-10-17T21:06:20.421Z,68.96
2022-10-17T21:08:47.820Z,68.97
2022-10-17T21:11:23.555Z,69.00
2022-10-17T21:13:55.848Z,68.99
2022-10-17T21:16:23.043Z,68.99
2022-10-17T21:18:49.960Z,68.97
2022-10-17T21:21:28.054Z,68.86
2022-10-17T21:24:00.478Z,69.04
2022-10-17T21:26:27.502Z,69.18
2022-10-17T21:28:54.704Z,69.19
2022-10-17T21:31:23.383Z,69.18
2022-10-17T21:33:57.938Z,69.16
2022-10-17T21:36:25.835Z,69.10
2022-10-17T21:38:54.203Z,69.07
2022-10-17T21:41:24.665Z,69.01
2022-10-17T21:43:58.131Z,68.87
2022-10-17T21:46:25.303Z,68.92
2022-10-17T21:48:52.757Z,68.84
2022-10-17T21:51:21.705Z,68.93
2022-10-17T21:53:49.126Z,69.13
2022-10-17T21:56:17.997Z,69.21
2022-10-17T21:58:45.155Z,69.18
2022-10-17T22:01:17.295Z,69.06
2022-10-17T22:03:46.967Z,69.02
2022-10-17T22:09:02.840Z,69.23
2022-10-17T22:11:31.108Z,69.31
2022-10-17T22:14:05.867Z,69.51
2022-10-17T22:16:33.217Z,69.54
2022-10-17T22:19:04.807Z,69.66
2022-10-17T22:21:33.533Z,69.46
2022-10-17T22:24:01.807Z,69.34
2022-10-17T22:26:29.743Z,69.38
2022-10-17T22:28:56.858Z,69.46
2022-10-17T22:31:23.928Z,69.36
2022-10-17T22:33:50.963Z,69.34
2022-10-17T22:36:18.009Z,69.37
2022-10-17T22:38:44.987Z,69.52
2022-10-17T22:41:11.873Z,69.62
2022-10-17T22:43:38.749Z,69.56
2022-10-17T22:46:06.315Z,69.39
2022-10-17T22:48:33.228Z,69.42
2022-10-17T22:51:00.465Z,69.46
2022-10-17T22:53:27.414Z,69.49
2022-10-17T22:55:55.648Z,69.63
2022-10-17T22:58:22.832Z,69.67
2022-10-17T23:00:50.288Z,69.76
2022-10-17T23:03:17.434Z,69.79
2022-10-17T23:05:48.963Z,69.77
2022-10-17T23:08:16.202Z,69.77
2022-10-17T23:10:43.108Z,69.73
2022-10-17T23:13:10.075Z,69.75
2022-10-17T23:15:37.014Z,69.74
2022-10-17T23:18:04.297Z,69.86
2022-10-17T23:20:31.347Z,70.07
2022-10-17T23:22:58.372Z,70.13
2022-10-17T23:25:25.521Z,70.04
2022-10-17T23:27:52.475Z,69.86
2022-10-17T23:30:19.419Z,69.92
2022-10-17T23:32:46.402Z,69.91
2022-10-17T23:35:13.567Z,69.90
2022-10-17T23:37:40.484Z,69.97
2022-10-17T23:40:08.005Z,70.00
2022-10-17T23:42:34.912Z,70.10
2022-10-17T23:45:01.824Z,70.12
2022-10-17T23:47:29.056Z,70.11
2022-10-17T23:49:56.985Z,69.92
2022-10-17T23:52:24.376Z,70.06
2022-10-17T23:54:51.249Z,70.06
2022-10-17T23:57:18.334Z,69.94
2022-10-17T23:59:45.256Z,70.02
